Time;durP1;ratioP1;P1;durP2;ratioP2;P2;SDS_P1;SDS_P2;PMS_P1;PMS_P2;Temp;Humidity;BMP_temperature;BMP_pressure;BME280_temperature;BME280_humidity;BME280_pressure;Samples;Min_cycle;Max_cycle;Signal;HPM_P1;HPM_P2
2021/05/13 00:00:53;;;;;;;8.85;5.35;;;;;;;8.38;100.00;99681.03;20895461;28;20500;-69
2021/05/13 00:11:03;;;;;;;12.82;5.03;;;;;;;8.18;100.00;99664.84;20901809;28;20052;-69
2021/05/13 00:21:04;;;;;;;9.63;4.38;;;;;;;8.02;100.00;99654.44;20901538;28;20185;-70
2021/05/13 00:31:06;;;;;;;10.02;3.47;;;;;;;8.00;100.00;99648.44;20895241;28;20045;-70
2021/05/13 00:41:08;;;;;;;7.22;3.47;;;;;;;8.04;100.00;99639.53;20907972;28;20496;-69
2021/05/13 00:51:10;;;;;;;6.25;3.40;;;;;;;8.03;100.00;99633.47;20917489;28;20475;-70
2021/05/13 01:01:16;;;;;;;11.38;4.32;;;;;;;8.31;100.00;99626.75;20910736;28;20095;-71
2021/05/13 01:11:18;;;;;;;10.85;4.15;;;;;;;8.42;100.00;99621.75;20917023;28;20099;-71
2021/05/13 01:21:20;;;;;;;8.57;4.13;;;;;;;8.27;100.00;99614.78;20844249;28;20340;-70
2021/05/13 01:31:22;;;;;;;8.45;4.18;;;;;;;8.11;100.00;99615.66;20842910;28;20040;-70
2021/05/13 01:41:24;;;;;;;9.63;5.15;;;;;;;7.96;100.00;99624.34;20918061;28;20080;-70
2021/05/13 01:51:27;;;;;;;10.70;5.50;;;;;;;7.85;100.00;99618.88;20913116;28;20044;-70
2021/05/13 02:01:29;;;;;;;9.80;4.80;;;;;;;7.74;100.00;99616.88;20906749;28;20049;-71
2021/05/13 02:11:31;;;;;;;10.25;4.90;;;;;;;7.54;100.00;99624.91;20912760;28;20087;-70
2021/05/13 02:21:33;;;;;;;9.27;4.40;;;;;;;7.53;100.00;99619.78;20892810;28;20141;-71
2021/05/13 02:31:35;;;;;;;8.43;4.72;;;;;;;7.70;100.00;99611.91;20903462;28;20527;-71
2021/05/13 02:41:38;;;;;;;12.88;5.50;;;;;;;7.83;100.00;99617.25;20910385;28;20072;-68
2021/05/13 02:51:40;;;;;;;7.57;4.82;;;;;;;7.77;100.00;99602.00;20891277;28;20045;-68
2021/05/13 03:01:43;;;;;;;8.40;4.03;;;;;;;7.48;100.00;99601.81;20883694;28;20045;-69
2021/05/13 03:11:45;;;;;;;7.72;3.92;;;;;;;7.31;100.00;99581.91;20896625;28;20041;-69
2021/05/13 03:21:47;;;;;;;8.02;4.55;;;;;;;7.22;100.00;99568.53;20742598;28;20097;-68
2021/05/13 03:31:49;;;;;;;10.80;5.40;;;;;;;7.14;100.00;99562.91;20842033;28;20102;-68
2021/05/13 03:41:51;;;;;;;8.25;4.82;;;;;;;7.00;100.00;99573.22;20887231;28;20254;-69
2021/05/13 03:51:53;;;;;;;9.35;5.05;;;;;;;7.01;100.00;99561.91;20904131;28;20099;-70
2021/05/13 04:12:03;;;;;;;14.80;6.53;;;;;;;7.22;100.00;99560.72;20902557;28;20044;-70
2021/05/13 04:22:05;;;;;;;9.25;5.78;;;;;;;7.26;100.00;99562.28;20902183;28;20049;-69
2021/05/13 04:32:06;;;;;;;13.45;6.05;;;;;;;7.44;100.00;99576.88;20894961;28;20049;-70
2021/05/13 04:42:29;;;;;;;12.13;5.68;;;;;;;7.90;100.00;99571.72;20887084;28;20041;-69
2021/05/13 04:52:31;;;;;;;11.35;6.32;;;;;;;8.15;100.00;99572.00;20901811;28;20045;-69
2021/05/13 05:02:34;;;;;;;10.98;5.43;;;;;;;8.26;100.00;99567.00;20893586;28;20416;-70
2021/05/13 05:12:36;;;;;;;11.00;5.47;;;;;;;8.34;100.00;99556.16;20852017;28;20049;-70
2021/05/13 05:22:37;;;;;;;8.82;5.07;;;;;;;8.63;100.00;99551.84;20813898;28;20468;-69
2021/05/13 05:32:39;;;;;;;11.45;6.55;;;;;;;9.04;100.00;99544.94;20883439;28;20107;-69
2021/05/13 05:42:41;;;;;;;11.85;5.40;;;;;;;9.29;100.00;99544.28;20913169;28;20102;-69
2021/05/13 05:52:43;;;;;;;10.32;4.97;;;;;;;9.47;100.00;99531.81;20894577;28;20114;-69
2021/05/13 06:02:46;;;;;;;8.52;4.82;;;;;;;9.67;100.00;99523.53;20888008;28;20118;-70
2021/05/13 06:12:49;;;;;;;11.27;5.88;;;;;;;10.02;99.73;99516.00;20911778;28;20052;-70
2021/05/13 06:22:51;;;;;;;11.05;5.55;;;;;;;10.27;98.26;99514.31;20917502;22;20060;-69
2021/05/13 06:32:53;;;;;;;13.10;5.20;;;;;;;10.55;97.52;99528.16;20966536;28;20048;-69
2021/05/13 06:42:55;;;;;;;13.15;5.93;;;;;;;11.00;96.39;99530.22;20989505;28;20048;-69
2021/05/13 06:52:56;;;;;;;10.02;4.25;;;;;;;11.37;94.48;99532.88;20988873;28;20099;-69
2021/05/13 07:02:58;;;;;;;9.00;4.05;;;;;;;11.84;90.44;99532.06;20960391;28;20095;-70
2021/05/13 07:13:01;;;;;;;10.80;4.40;;;;;;;12.10;90.34;99527.53;20945949;28;20589;-72
2021/05/13 07:23:05;;;;;;;7.90;3.40;;;;;;;12.27;84.93;99534.97;20957508;28;20044;-70
2021/05/13 07:33:07;;;;;;;11.20;4.07;;;;;;;12.74;85.06;99526.97;20940751;28;20504;-71
2021/05/13 07:43:09;;;;;;;6.35;3.20;;;;;;;13.03;85.58;99515.97;20959434;28;20048;-71
2021/05/13 07:53:11;;;;;;;6.70;2.47;;;;;;;13.23;82.57;99510.03;20985462;28;20126;-72
2021/05/13 08:03:13;;;;;;;6.78;2.78;;;;;;;13.59;79.69;99509.72;20960231;28;20063;-72
2021/05/13 08:13:16;;;;;;;6.30;2.65;;;;;;;14.00;79.20;99513.38;20963485;28;20087;-71
2021/05/13 08:23:18;;;;;;;6.03;2.70;;;;;;;14.58;76.39;99506.72;20965089;28;20045;-71
2021/05/13 08:33:20;;;;;;;8.52;3.97;;;;;;;14.84;74.64;99499.25;20941894;28;20448;-71
2021/05/13 08:43:27;;;;;;;5.05;2.42;;;;;;;15.32;72.21;99494.97;20964817;28;20103;-71
2021/05/13 08:53:30;;;;;;;6.53;2.10;;;;;;;15.80;66.16;99486.31;20954502;28;20052;-71
2021/05/13 09:03:37;;;;;;;7.10;2.85;;;;;;;15.97;64.36;99479.50;20973676;28;20076;-72
2021/05/13 09:24:10;;;;;;;8.82;2.00;;;;;;;17.07;60.75;99458.50;21305391;23;20054;-70
2021/05/13 09:34:16;;;;;;;6.35;2.00;;;;;;;17.64;59.51;99455.66;20576148;28;20454;-70
2021/05/13 09:44:39;;;;;;;5.78;2.30;;;;;;;17.69;58.55;99459.50;20578739;28;20157;-70
2021/05/13 09:54:41;;;;;;;4.00;1.52;;;;;;;17.94;53.46;99442.84;20614395;28;20530;-70
2021/05/13 10:04:43;;;;;;;5.35;1.98;;;;;;;19.83;49.54;99439.91;20622695;28;20054;-70
2021/05/13 10:14:45;;;;;;;6.47;1.80;;;;;;;19.24;48.19;99443.59;20615710;28;20039;-70
2021/05/13 10:25:07;;;;;;;6.72;1.83;;;;;;;19.62;49.70;99426.28;20619308;28;20043;-68
2021/05/13 10:35:12;;;;;;;4.30;1.10;;;;;;;18.98;49.84;99425.13;20608929;28;20038;-68
2021/05/13 10:45:34;;;;;;;;;;;;;;;17.07;53.11;99437.34;20632145;28;20074;-68
2021/05/13 10:55:37;;;;;;;2.58;0.80;;;;;;;16.92;53.17;99436.16;20609192;28;19977;-68
2021/05/13 11:05:41;;;;;;;8.52;1.42;;;;;;;16.10;61.26;99441.28;20623478;28;20046;-68
2021/05/13 11:15:46;;;;;;;3.13;1.00;;;;;;;16.05;58.04;99445.34;20622500;28;20099;-68
2021/05/13 11:26:02;;;;;;;3.35;0.90;;;;;;;15.91;57.03;99430.75;20617930;28;20405;-69
2021/05/13 11:36:04;;;;;;;1.63;0.80;;;;;;;15.24;73.03;99425.41;20618212;28;20450;-70
2021/05/13 11:46:09;;;;;;;3.42;0.90;;;;;;;16.00;67.72;99431.72;20595351;28;20043;-68
2021/05/13 11:56:13;;;;;;;3.47;1.05;;;;;;;16.46;64.83;99425.63;20612709;28;20413;-68
2021/05/13 12:06:16;;;;;;;3.90;1.58;;;;;;;16.72;60.06;99417.91;20612059;28;20051;-72
2021/05/13 12:16:19;;;;;;;5.25;1.30;;;;;;;16.54;66.22;99425.75;20557747;28;20545;-70
2021/05/13 12:26:28;;;;;;;6.28;1.73;;;;;;;15.57;79.46;99427.72;20543941;28;20043;-71
2021/05/13 12:36:39;;;;;;;4.30;1.40;;;;;;;15.26;85.30;99423.50;20581432;28;20395;-69
2021/05/13 12:46:47;;;;;;;3.63;1.35;;;;;;;15.68;76.86;99426.75;20583459;28;20070;-71
2021/05/13 12:56:48;;;;;;;4.45;1.70;;;;;;;15.18;75.34;99442.66;20622801;28;20042;-70
2021/05/13 13:06:58;;;;;;;4.32;1.55;;;;;;;14.54;76.06;99455.28;20635282;28;20557;-70
2021/05/13 13:17:00;;;;;;;2.42;1.27;;;;;;;14.71;83.89;99483.66;20601034;28;20047;-70
2021/05/13 13:27:03;;;;;;;4.25;1.38;;;;;;;13.95;94.27;99497.97;20573557;28;20193;-68
2021/05/13 13:37:08;;;;;;;3.17;1.00;;;;;;;13.90;94.62;99502.78;20428842;22;20051;-71
2021/05/13 13:58:52;;;;;;;3.47;1.00;;;;;;;13.40;99.61;99498.19;19940646;28;20031;-70
2021/05/13 14:09:46;;;;;;;2.10;0.90;;;;;;;13.95;96.60;99500.63;20041905;23;20401;-81
2021/05/13 14:19:53;;;;;;;4.65;1.58;;;;;;;14.97;92.81;99484.88;19997153;23;20323;-80
2021/05/13 14:30:38;;;;;;;3.50;1.08;;;;;;;15.77;89.05;99481.31;20053249;29;20211;-80
2021/05/13 14:41:03;;;;;;;3.17;1.30;;;;;;;16.01;88.13;99459.78;20061014;28;20481;-82
2021/05/13 14:51:29;;;;;;;3.67;0.70;;;;;;;15.55;87.21;99461.31;20430642;28;20501;-82
2021/05/13 15:01:32;;;;;;;1.85;1.10;;;;;;;15.18;87.54;99457.63;20452547;29;20488;-82
2021/05/13 15:11:34;;;;;;;1.80;0.90;;;;;;;15.11;84.20;99457.31;20506574;29;20039;-83
2021/05/13 15:21:36;;;;;;;3.38;1.10;;;;;;;15.66;81.17;99462.97;20505465;28;20047;-83
2021/05/13 15:31:39;;;;;;;2.22;0.90;;;;;;;15.58;79.64;99463.69;20491831;28;20405;-83
2021/05/13 15:41:40;;;;;;;2.08;0.85;;;;;;;15.39;78.63;99469.72;20481398;28;20056;-82
2021/05/13 15:51:42;;;;;;;4.38;1.70;;;;;;;15.24;76.91;99452.63;20503301;28;20517;-84
2021/05/13 16:01:44;;;;;;;1.45;0.80;;;;;;;15.31;75.96;99448.47;20451871;28;20498;-82
2021/05/13 16:11:48;;;;;;;1.67;0.90;;;;;;;15.14;77.52;99451.75;20459879;28;20046;-83
2021/05/13 16:21:53;;;;;;;1.05;0.70;;;;;;;15.74;77.51;99445.50;20457520;29;20043;-84
2021/05/13 16:31:54;;;;;;;1.23;0.70;;;;;;;15.84;73.31;99445.50;20454155;28;20050;-84
2021/05/13 16:41:56;;;;;;;1.45;0.70;;;;;;;15.55;72.95;99447.28;20464129;28;20458;-83
2021/05/13 16:51:59;;;;;;;1.45;0.77;;;;;;;14.93;76.15;99456.31;20476487;29;20043;-83
2021/05/13 17:02:01;;;;;;;1.83;0.60;;;;;;;14.51;79.81;99452.94;20465900;28;20071;-83
2021/05/13 17:12:22;;;;;;;2.80;0.85;;;;;;;14.45;79.40;99438.50;20443967;28;20075;-83
2021/05/13 17:22:24;;;;;;;1.55;0.70;;;;;;;15.24;72.31;99452.63;20439304;28;20458;-82
2021/05/13 17:32:26;;;;;;;2.97;0.70;;;;;;;15.46;67.97;99450.72;20500586;29;20094;-82
2021/05/13 17:42:28;;;;;;;0.80;0.50;;;;;;;14.50;67.66;99462.63;20470504;28;20054;-82
2021/05/13 17:52:29;;;;;;;1.83;0.70;;;;;;;14.04;70.76;99456.91;20481966;28;20131;-83
2021/05/13 18:02:31;;;;;;;2.47;0.90;;;;;;;13.99;70.49;99456.47;20476854;28;20043;-82
2021/05/13 18:12:33;;;;;;;2.33;0.80;;;;;;;13.92;71.98;99468.44;20482741;29;20053;-82
2021/05/13 18:22:42;;;;;;;1.45;0.50;;;;;;;13.62;76.72;99467.38;20513418;28;20043;-82
2021/05/13 18:32:45;;;;;;;2.13;0.90;;;;;;;13.33;79.14;99482.06;20507962;29;20197;-82
2021/05/13 18:42:49;;;;;;;3.25;1.45;;;;;;;13.17;82.74;99485.06;20482890;28;20050;-84
2021/05/13 18:52:52;;;;;;;2.40;1.10;;;;;;;13.05;81.92;99490.44;20509479;28;20457;-82
2021/05/13 19:02:55;;;;;;;4.82;1.90;;;;;;;12.58;84.63;99502.84;20492193;29;20099;-82
2021/05/13 19:12:58;;;;;;;3.65;1.85;;;;;;;12.11;86.03;99513.47;20485593;28;20074;-82
2021/05/13 19:23:00;;;;;;;3.20;1.40;;;;;;;11.81;88.82;99521.81;20464600;29;20089;-83
2021/05/13 19:43:27;;;;;;;2.67;1.10;;;;;;;11.33;90.90;99528.78;20497001;28;20055;-83
2021/05/13 19:53:28;;;;;;;3.90;1.23;;;;;;;11.09;92.25;99541.81;20466466;29;20056;-84
2021/05/13 20:03:59;;;;;;;3.10;1.23;;;;;;;10.87;93.99;99529.38;20479793;29;20062;-84
2021/05/13 20:14:01;;;;;;;4.07;1.95;;;;;;;10.69;95.45;99541.13;20460299;29;20059;-83
2021/05/13 20:24:05;;;;;;;4.43;2.40;;;;;;;10.48;97.07;99537.34;20459455;28;20075;-84
2021/05/13 20:34:09;;;;;;;6.93;2.28;;;;;;;10.29;97.71;99537.75;20485933;28;20044;-82
2021/05/13 20:44:13;;;;;;;6.45;2.95;;;;;;;10.10;99.53;99539.88;20458121;29;20490;-82
2021/05/13 21:04:53;;;;;;;3.20;1.50;;;;;;;9.67;100.00;99528.75;20485320;28;20047;-82
2021/05/13 21:15:18;;;;;;;2.88;1.20;;;;;;;9.50;100.00;99537.66;20464676;29;20051;-82
2021/05/13 21:25:30;;;;;;;4.75;1.35;;;;;;;9.33;100.00;99536.16;20478566;29;20058;-83
2021/05/13 21:35:34;;;;;;;5.80;2.58;;;;;;;9.16;100.00;99543.34;20489720;28;20044;-83
2021/05/13 21:45:36;;;;;;;4.28;1.70;;;;;;;9.05;100.00;99544.00;20512501;28;20055;-82
2021/05/13 21:55:38;;;;;;;3.28;1.55;;;;;;;8.98;100.00;99524.44;20526476;29;20051;-82
2021/05/13 22:05:40;;;;;;;5.45;2.60;;;;;;;8.93;100.00;99557.81;20468301;28;20363;-83
2021/05/13 22:15:43;;;;;;;6.68;2.55;;;;;;;8.86;100.00;99546.06;20472890;28;20051;-84
2021/05/13 22:25:47;;;;;;;4.00;2.10;;;;;;;8.80;100.00;99547.28;20470348;28;20044;-84
2021/05/13 22:35:52;;;;;;;6.88;2.63;;;;;;;8.77;100.00;99557.06;20495230;28;20409;-84
2021/05/13 22:45:54;;;;;;;5.40;2.40;;;;;;;8.73;100.00;99552.97;20516628;28;20055;-84
2021/05/13 22:56:07;;;;;;;4.70;2.30;;;;;;;8.66;100.00;99549.03;20514413;28;20048;-85
2021/05/13 23:06:10;;;;;;;4.60;2.42;;;;;;;8.53;100.00;99549.75;20485852;28;20051;-83
2021/05/13 23:16:11;;;;;;;5.03;2.25;;;;;;;8.43;100.00;99542.59;20513564;28;20043;-83
2021/05/13 23:26:13;;;;;;;7.45;2.72;;;;;;;8.46;100.00;99548.47;20496291;28;20047;-85
2021/05/13 23:36:16;;;;;;;4.43;2.20;;;;;;;8.68;100.00;99548.03;20507546;28;20039;-84
2021/05/13 23:46:18;;;;;;;6.82;3.35;;;;;;;8.72;100.00;99543.47;20500955;28;20058;-84
2021/05/13 23:56:20;;;;;;;9.50;4.07;;;;;;;8.55;100.00;99547.91;20506678;28;20043;-84
